Time;durP1;ratioP1;P1;durP2;ratioP2;P2;SDS_P1;SDS_P2;PMS_P1;PMS_P2;Temp;Humidity;BMP_temperature;BMP_pressure;BME280_temperature;BME280_humidity;BME280_pressure;Samples;Min_cycle;Max_cycle;Signal;HPM_P1;HPM_P2
2022/07/13 00:00:18;;;;;;;6.90;2.85;;;;;;;;;;5100133;28;20135;-68
2022/07/13 00:02:44;;;;;;;5.22;2.88;;;;;;;;;;5100468;28;20561;-68
2022/07/13 00:05:10;;;;;;;5.93;3.03;;;;;;;;;;5105502;28;20039;-68
2022/07/13 00:07:37;;;;;;;5.75;3.15;;;;;;;;;;5106859;28;20099;-68
2022/07/13 00:10:04;;;;;;;9.68;4.05;;;;;;;;;;5088185;28;20563;-69
2022/07/13 00:12:30;;;;;;;4.82;2.97;;;;;;;;;;5096845;28;20052;-68
2022/07/13 00:14:56;;;;;;;4.30;2.83;;;;;;;;;;5106621;28;20079;-68
2022/07/13 00:17:22;;;;;;;6.18;3.47;;;;;;;;;;5110641;28;20044;-68
2022/07/13 00:19:48;;;;;;;4.60;3.28;;;;;;;;;;5097108;28;20044;-68
2022/07/13 00:22:14;;;;;;;4.10;2.58;;;;;;;;;;5106453;28;20400;-68
2022/07/13 00:24:40;;;;;;;3.70;3.30;;;;;;;;;;5105773;28;20115;-68
2022/07/13 00:27:07;;;;;;;4.68;3.40;;;;;;;;;;5106294;28;20044;-68
2022/07/13 00:29:33;;;;;;;8.52;2.95;;;;;;;;;;5103966;28;20065;-68
2022/07/13 00:31:59;;;;;;;5.75;3.00;;;;;;;;;;5112186;28;20105;-68
2022/07/13 00:34:25;;;;;;;6.30;3.58;;;;;;;;;;5102763;28;20095;-68
2022/07/13 00:36:51;;;;;;;4.00;3.20;;;;;;;;;;5106239;28;20074;-69
2022/07/13 00:39:17;;;;;;;3.85;3.38;;;;;;;;;;5103080;28;20070;-69
2022/07/13 00:41:47;;;;;;;4.65;3.35;;;;;;;;;;5106364;28;20055;-68
2022/07/13 00:44:13;;;;;;;6.97;4.10;;;;;;;;;;5105918;28;20044;-68
2022/07/13 00:46:43;;;;;;;4.13;3.33;;;;;;;;;;5105971;28;20109;-68
2022/07/13 00:49:10;;;;;;;4.93;3.10;;;;;;;;;;5105054;28;20062;-68
2022/07/13 00:51:37;;;;;;;5.65;3.00;;;;;;;;;;5089775;28;20048;-68
2022/07/13 00:54:03;;;;;;;5.82;3.58;;;;;;;;;;5106081;28;20059;-68
2022/07/13 00:56:30;;;;;;;7.13;3.50;;;;;;;;;;5108233;28;20044;-68
2022/07/13 00:58:56;;;;;;;5.87;3.87;;;;;;;;;;5104279;28;20059;-68
2022/07/13 01:01:23;;;;;;;5.70;3.00;;;;;;;;;;5101426;28;20083;-69
2022/07/13 01:03:49;;;;;;;4.13;3.33;;;;;;;;;;5103221;28;20484;-68
2022/07/13 01:06:15;;;;;;;3.70;3.40;;;;;;;;;;5104472;28;20059;-68
2022/07/13 01:08:41;;;;;;;6.07;4.17;;;;;;;;;;5104671;28;20067;-68
2022/07/13 01:11:08;;;;;;;6.05;3.88;;;;;;;;;;5099867;28;20321;-68
2022/07/13 01:13:35;;;;;;;;;;;;;;;;;;5105960;28;20063;-68
2022/07/13 01:16:01;;;;;;;4.25;3.85;;;;;;;;;;5105448;28;20391;-68
2022/07/13 01:18:28;;;;;;;5.57;4.30;;;;;;;;;;5105207;28;20105;-68
2022/07/13 01:20:54;;;;;;;7.43;5.05;;;;;;;;;;5102735;28;20127;-69
2022/07/13 01:23:20;;;;;;;5.00;4.43;;;;;;;;;;5091484;28;20096;-68
2022/07/13 01:25:46;;;;;;;7.80;4.25;;;;;;;;;;5105643;28;20055;-68
2022/07/13 01:28:16;;;;;;;4.93;4.10;;;;;;;;;;5099384;28;20098;-69
2022/07/13 01:30:43;;;;;;;7.20;4.00;;;;;;;;;;5104948;28;20048;-68
2022/07/13 01:33:09;;;;;;;;;;;;;;;;;;5107144;28;20060;-69
2022/07/13 01:35:36;;;;;;;5.82;3.65;;;;;;;;;;5110697;28;20008;-68
2022/07/13 01:38:02;;;;;;;5.97;4.47;;;;;;;;;;5102820;28;20657;-69
2022/07/13 01:40:28;;;;;;;4.95;4.45;;;;;;;;;;5098392;28;20047;-69
2022/07/13 01:42:54;;;;;;;5.32;4.80;;;;;;;;;;5101480;28;20048;-69
2022/07/13 01:45:22;;;;;;;7.13;3.95;;;;;;;;;;5105824;28;20644;-69
2022/07/13 01:47:49;;;;;;;6.13;4.03;;;;;;;;;;5104243;28;20067;-69
2022/07/13 01:50:16;;;;;;;9.13;4.18;;;;;;;;;;5093529;28;20526;-69
2022/07/13 01:52:42;;;;;;;7.28;4.35;;;;;;;;;;5084816;28;20058;-69
2022/07/13 01:55:10;;;;;;;7.90;4.60;;;;;;;;;;5084790;28;20487;-69
2022/07/13 01:57:36;;;;;;;9.18;4.78;;;;;;;;;;5104828;28;20052;-69
2022/07/13 02:00:04;;;;;;;6.45;4.28;;;;;;;;;;5084815;28;20099;-68
2022/07/13 02:02:30;;;;;;;6.35;4.88;;;;;;;;;;5084332;28;20076;-69
2022/07/13 02:04:57;;;;;;;6.70;5.18;;;;;;;;;;5084765;28;20041;-69
2022/07/13 02:07:23;;;;;;;5.07;4.57;;;;;;;;;;5083435;28;20048;-69
2022/07/13 02:09:50;;;;;;;5.80;4.82;;;;;;;;;;5111333;28;20123;-69
2022/07/13 02:12:16;;;;;;;11.15;5.28;;;;;;;;;;5100859;28;20057;-70
2022/07/13 02:14:43;;;;;;;5.33;4.27;;;;;;;;;;5100873;28;20070;-69
2022/07/13 02:17:09;;;;;;;9.68;4.85;;;;;;;;;;5099164;28;20090;-69
2022/07/13 02:19:35;;;;;;;9.93;5.05;;;;;;;;;;5084659;28;20041;-69
2022/07/13 02:22:01;;;;;;;5.93;5.10;;;;;;;;;;5084488;28;20043;-69
2022/07/13 02:24:27;;;;;;;7.35;5.15;;;;;;;;;;5084679;28;20056;-69
2022/07/13 02:26:53;;;;;;;7.10;5.88;;;;;;;;;;5098795;28;20060;-69
2022/07/13 02:29:20;;;;;;;5.93;5.30;;;;;;;;;;5088284;28;20063;-69
2022/07/13 02:31:46;;;;;;;5.78;5.18;;;;;;;;;;5133353;28;20048;-69
2022/07/13 02:34:12;;;;;;;6.88;5.60;;;;;;;;;;5103974;28;20043;-69
2022/07/13 02:36:38;;;;;;;6.15;4.95;;;;;;;;;;5103303;28;20526;-69
2022/07/13 02:39:04;;;;;;;8.13;5.72;;;;;;;;;;5104676;28;20040;-69
2022/07/13 02:41:30;;;;;;;9.95;5.30;;;;;;;;;;5104604;28;20046;-69
2022/07/13 02:43:56;;;;;;;7.45;5.05;;;;;;;;;;5104565;28;20065;-68
2022/07/13 02:46:22;;;;;;;7.00;4.97;;;;;;;;;;5103372;28;20049;-69
2022/07/13 02:48:48;;;;;;;6.75;4.80;;;;;;;;;;5101408;28;20050;-69
2022/07/13 02:51:15;;;;;;;8.07;4.93;;;;;;;;;;5094983;28;20044;-69
2022/07/13 02:53:41;;;;;;;5.65;4.88;;;;;;;;;;5115889;28;20438;-69
2022/07/13 02:56:07;;;;;;;7.43;5.35;;;;;;;;;;5087853;28;20052;-69
2022/07/13 02:58:33;;;;;;;8.82;5.63;;;;;;;;;;5100193;28;20047;-69
2022/07/13 03:01:00;;;;;;;7.78;6.10;;;;;;;;;;5107958;28;20067;-68
2022/07/13 03:03:26;;;;;;;10.70;5.45;;;;;;;;;;5107800;28;20101;-69
2022/07/13 03:05:52;;;;;;;6.78;4.90;;;;;;;;;;5101528;28;20044;-68
2022/07/13 03:08:18;;;;;;;10.63;5.78;;;;;;;;;;5109868;28;20101;-69
2022/07/13 03:10:45;;;;;;;6.43;5.30;;;;;;;;;;5113482;28;20051;-68
2022/07/13 03:13:11;;;;;;;5.45;4.95;;;;;;;;;;5107465;28;20050;-69
2022/07/13 03:15:38;;;;;;;10.23;5.65;;;;;;;;;;5101308;28;20068;-68
2022/07/13 03:18:04;;;;;;;6.78;5.28;;;;;;;;;;5101551;28;20040;-69
2022/07/13 03:20:30;;;;;;;6.18;5.57;;;;;;;;;;5098494;28;20056;-69
2022/07/13 03:22:56;;;;;;;8.45;5.63;;;;;;;;;;5107759;28;20169;-69
2022/07/13 03:25:22;;;;;;;6.32;5.50;;;;;;;;;;5104904;28;20046;-68
2022/07/13 03:27:48;;;;;;;9.60;5.63;;;;;;;;;;5112892;28;20467;-68
2022/07/13 03:30:14;;;;;;;7.15;5.40;;;;;;;;;;5098053;28;20080;-69
2022/07/13 03:32:40;;;;;;;8.60;5.40;;;;;;;;;;5099991;28;20044;-69
2022/07/13 03:35:06;;;;;;;6.88;5.68;;;;;;;;;;5105549;28;20040;-69
2022/07/13 03:37:33;;;;;;;7.63;6.18;;;;;;;;;;5098277;28;20044;-69
2022/07/13 03:39:59;;;;;;;5.85;5.20;;;;;;;;;;5106076;28;20104;-69
2022/07/13 03:42:25;;;;;;;8.82;4.90;;;;;;;;;;5106072;28;20040;-69
2022/07/13 03:44:51;;;;;;;6.28;5.65;;;;;;;;;;5104650;28;20040;-69
2022/07/13 03:47:17;;;;;;;7.10;5.05;;;;;;;;;;5097611;28;20051;-69
2022/07/13 03:49:43;;;;;;;7.30;5.53;;;;;;;;;;5096438;28;20056;-69
2022/07/13 03:52:09;;;;;;;12.52;5.78;;;;;;;;;;5102197;28;20050;-69
2022/07/13 03:54:35;;;;;;;6.80;5.47;;;;;;;;;;5085733;28;20041;-69
2022/07/13 03:57:01;;;;;;;7.43;5.32;;;;;;;;;;5100038;28;20054;-69
2022/07/13 03:59:27;;;;;;;7.65;5.68;;;;;;;;;;5103387;28;20090;-69
2022/07/13 04:01:54;;;;;;;9.02;5.57;;;;;;;;;;5131024;27;20108;-69
2022/07/13 04:04:20;;;;;;;8.45;5.40;;;;;;;;;;5106846;28;20521;-68
2022/07/13 04:06:46;;;;;;;6.80;5.40;;;;;;;;;;5096782;28;20036;-69
2022/07/13 04:09:12;;;;;;;5.85;5.25;;;;;;;;;;5109417;28;20039;-69
2022/07/13 04:11:38;;;;;;;9.77;5.93;;;;;;;;;;5106556;28;20483;-69
2022/07/13 04:14:04;;;;;;;5.80;4.88;;;;;;;;;;5104027;28;20044;-69
2022/07/13 04:16:30;;;;;;;6.93;4.75;;;;;;;;;;5096850;28;20069;-69
2022/07/13 04:18:57;;;;;;;5.57;5.07;;;;;;;;;;5094469;28;20040;-69
2022/07/13 04:21:23;;;;;;;6.57;4.82;;;;;;;;;;5105187;28;20052;-69
2022/07/13 04:23:49;;;;;;;7.47;5.25;;;;;;;;;;5103439;28;20040;-69
2022/07/13 04:26:15;;;;;;;8.57;5.13;;;;;;;;;;5114699;28;20134;-69
2022/07/13 04:28:41;;;;;;;8.88;4.90;;;;;;;;;;5103773;28;20407;-69
2022/07/13 04:31:07;;;;;;;7.38;5.18;;;;;;;;;;5103386;28;20312;-68
2022/07/13 04:33:33;;;;;;;7.85;5.35;;;;;;;;;;5104654;28;20044;-69
2022/07/13 04:35:59;;;;;;;6.70;5.28;;;;;;;;;;5096197;28;20048;-68
2022/07/13 04:38:26;;;;;;;7.95;5.55;;;;;;;;;;5104462;28;20522;-69
2022/07/13 04:40:52;;;;;;;5.53;5.03;;;;;;;;;;5106067;28;20048;-69
2022/07/13 04:43:18;;;;;;;6.72;5.13;;;;;;;;;;5105829;28;20114;-68
2022/07/13 04:45:44;;;;;;;5.57;4.93;;;;;;;;;;5105759;28;20052;-69
2022/07/13 04:48:10;;;;;;;6.15;4.88;;;;;;;;;;5105518;28;20039;-69
2022/07/13 04:50:36;;;;;;;5.50;5.00;;;;;;;;;;5088542;28;20047;-70
2022/07/13 04:53:02;;;;;;;6.70;6.00;;;;;;;;;;5085248;28;20048;-70
2022/07/13 04:55:28;;;;;;;8.85;5.18;;;;;;;;;;5099793;28;20103;-69
2022/07/13 04:57:56;;;;;;;8.35;5.82;;;;;;;;;;5085343;28;20051;-68
2022/07/13 05:00:23;;;;;;;6.13;5.53;;;;;;;;;;5085378;28;20101;-69
2022/07/13 05:02:49;;;;;;;7.97;5.35;;;;;;;;;;5084606;28;20042;-68
2022/07/13 05:05:15;;;;;;;6.30;5.53;;;;;;;;;;5085293;28;20047;-68
2022/07/13 05:07:41;;;;;;;7.78;5.78;;;;;;;;;;5088284;28;20432;-68
2022/07/13 05:10:08;;;;;;;5.45;4.90;;;;;;;;;;5105322;28;20040;-69
2022/07/13 05:12:39;;;;;;;8.00;5.28;;;;;;;;;;5098953;28;20048;-70
2022/07/13 05:15:06;;;;;;;7.63;5.50;;;;;;;;;;5087139;28;20075;-68
2022/07/13 05:17:32;;;;;;;10.55;6.00;;;;;;;;;;5110400;28;20052;-69
2022/07/13 05:19:58;;;;;;;7.00;5.70;;;;;;;;;;5107098;28;20108;-68
2022/07/13 05:22:24;;;;;;;7.32;6.57;;;;;;;;;;5099394;28;20040;-69
2022/07/13 05:24:50;;;;;;;12.68;6.60;;;;;;;;;;5101531;28;20454;-69
2022/07/13 05:27:16;;;;;;;10.35;7.15;;;;;;;;;;5113221;28;20294;-68
2022/07/13 05:29:43;;;;;;;8.40;7.53;;;;;;;;;;5100805;28;20483;-69
2022/07/13 05:32:09;;;;;;;9.10;7.47;;;;;;;;;;5110042;28;20044;-69
2022/07/13 05:34:35;;;;;;;9.32;6.50;;;;;;;;;;5105276;28;20058;-69
2022/07/13 05:37:01;;;;;;;7.97;6.53;;;;;;;;;;5112411;28;20048;-68
2022/07/13 05:39:27;;;;;;;11.27;7.03;;;;;;;;;;5114552;28;20082;-68
2022/07/13 05:41:53;;;;;;;8.93;6.30;;;;;;;;;;5104602;28;20076;-68
2022/07/13 05:44:19;;;;;;;10.15;6.90;;;;;;;;;;5104493;28;20048;-67
2022/07/13 05:46:45;;;;;;;10.25;7.65;;;;;;;;;;5104608;28;20059;-69
2022/07/13 05:49:11;;;;;;;11.05;7.78;;;;;;;;;;5101519;28;20162;-68
2022/07/13 05:51:37;;;;;;;10.98;7.78;;;;;;;;;;5104625;28;20162;-69
2022/07/13 05:54:03;;;;;;;10.75;8.02;;;;;;;;;;5090367;28;20028;-69
2022/07/13 05:56:30;;;;;;;8.90;7.53;;;;;;;;;;5091332;28;20051;-68
2022/07/13 05:58:56;;;;;;;9.00;7.38;;;;;;;;;;5109324;28;20040;-68
2022/07/13 06:01:23;;;;;;;9.32;7.03;;;;;;;;;;5092310;28;20104;-68
2022/07/13 06:03:49;;;;;;;13.65;8.00;;;;;;;;;;5099809;28;20054;-68
2022/07/13 06:06:15;;;;;;;13.35;8.50;;;;;;;;;;5096795;28;20096;-69
2022/07/13 06:08:41;;;;;;;9.10;7.00;;;;;;;;;;5103253;28;20039;-69
2022/07/13 06:11:07;;;;;;;11.63;8.10;;;;;;;;;;5089261;28;20108;-68
2022/07/13 06:13:33;;;;;;;11.18;9.07;;;;;;;;;;5100259;28;20043;-68
2022/07/13 06:15:59;;;;;;;11.27;8.90;;;;;;;;;;5094699;28;20136;-68
2022/07/13 06:18:26;;;;;;;13.13;7.63;;;;;;;;;;5096434;28;20035;-61
2022/07/13 06:20:53;;;;;;;11.85;8.98;;;;;;;;;;5088888;28;20083;-67
2022/07/13 06:23:20;;;;;;;12.32;8.75;;;;;;;;;;5085048;28;20044;-65
2022/07/13 06:25:46;;;;;;;9.13;8.15;;;;;;;;;;5087068;28;20048;-65
2022/07/13 06:28:13;;;;;;;12.65;9.73;;;;;;;;;;5086878;28;20043;-66
2022/07/13 06:30:39;;;;;;;12.40;9.15;;;;;;;;;;5104446;28;20040;-66
2022/07/13 06:33:05;;;;;;;11.50;8.45;;;;;;;;;;5110407;28;20043;-66
2022/07/13 06:35:32;;;;;;;9.55;8.20;;;;;;;;;;5096968;28;20068;-66
2022/07/13 06:37:58;;;;;;;10.73;8.03;;;;;;;;;;5091036;28;20075;-66
2022/07/13 06:40:25;;;;;;;13.18;9.30;;;;;;;;;;5101072;28;20294;-66
2022/07/13 06:42:51;;;;;;;9.57;8.27;;;;;;;;;;5092821;28;20040;-65
2022/07/13 06:45:17;;;;;;;8.30;7.50;;;;;;;;;;5107678;28;20048;-65
2022/07/13 06:47:43;;;;;;;11.43;8.05;;;;;;;;;;5103076;28;20044;-64
2022/07/13 06:50:10;;;;;;;14.70;8.55;;;;;;;;;;5111282;28;20091;-65
2022/07/13 06:52:37;;;;;;;9.45;8.13;;;;;;;;;;5098410;28;20051;-65
2022/07/13 06:55:04;;;;;;;9.95;8.70;;;;;;;;;;5102749;28;20116;-66
2022/07/13 06:57:31;;;;;;;17.90;8.55;;;;;;;;;;5102229;28;20510;-66
2022/07/13 06:59:57;;;;;;;44.78;11.55;;;;;;;;;;5107201;28;20072;-66
2022/07/13 07:02:23;;;;;;;24.70;9.82;;;;;;;;;;5105788;28;20044;-66
2022/07/13 07:04:49;;;;;;;14.95;9.13;;;;;;;;;;5096209;28;20113;-66
2022/07/13 07:07:16;;;;;;;13.02;8.60;;;;;;;;;;5105858;28;20040;-66
2022/07/13 07:09:42;;;;;;;10.80;7.60;;;;;;;;;;5106422;28;20054;-66
2022/07/13 07:12:08;;;;;;;13.77;8.18;;;;;;;;;;5106884;28;20068;-66
2022/07/13 07:14:34;;;;;;;14.38;8.30;;;;;;;;;;5109063;28;20048;-66
2022/07/13 07:17:02;;;;;;;12.40;7.78;;;;;;;;;;5106506;28;20044;-65
2022/07/13 07:19:28;;;;;;;12.27;8.15;;;;;;;;;;5115962;28;20166;-66
2022/07/13 07:21:55;;;;;;;12.27;6.97;;;;;;;;;;5099550;28;20043;-66
2022/07/13 07:24:21;;;;;;;22.58;9.48;;;;;;;;;;5106744;28;20101;-66
2022/07/13 07:26:47;;;;;;;12.03;7.97;;;;;;;;;;5107535;28;20104;-66
2022/07/13 07:29:14;;;;;;;11.98;8.23;;;;;;;;;;5106406;28;20056;-65
2022/07/13 07:31:40;;;;;;;20.17;7.55;;;;;;;;;;5106437;28;20530;-65
2022/07/13 07:34:07;;;;;;;10.45;7.93;;;;;;;;;;5107288;28;20044;-66
2022/07/13 07:36:33;;;;;;;16.27;8.75;;;;;;;;;;5114431;28;20059;-65
2022/07/13 07:38:59;;;;;;;13.63;8.15;;;;;;;;;;5110936;28;20047;-65
2022/07/13 07:41:26;;;;;;;12.85;9.57;;;;;;;;;;5110228;28;20059;-66
2022/07/13 07:43:52;;;;;;;13.38;9.65;;;;;;;;;;5117118;28;20069;-66
2022/07/13 07:46:18;;;;;;;17.40;8.88;;;;;;;;;;5113305;28;20043;-65
2022/07/13 07:48:44;;;;;;;19.55;9.25;;;;;;;;;;5104724;28;20044;-64
2022/07/13 07:51:11;;;;;;;11.35;8.43;;;;;;;;;;5101608;28;20075;-64
2022/07/13 07:53:37;;;;;;;10.65;9.55;;;;;;;;;;5098165;28;20044;-64
2022/07/13 07:56:04;;;;;;;15.30;10.93;;;;;;;;;;5091791;28;20603;-65
2022/07/13 07:58:30;;;;;;;14.40;9.52;;;;;;;;;;5097426;28;20049;-65
2022/07/13 08:00:56;;;;;;;219.63;26.50;;;;;;;;;;5089249;28;20086;-65
2022/07/13 08:03:22;;;;;;;188.98;27.70;;;;;;;;;;5096406;28;20484;-65
2022/07/13 08:05:51;;;;;;;16.45;11.15;;;;;;;;;;5102712;28;20077;-65
2022/07/13 08:08:18;;;;;;;22.75;11.55;;;;;;;;;;5101770;28;20048;-65
2022/07/13 08:10:45;;;;;;;17.47;9.80;;;;;;;;;;5109780;28;20055;-65
2022/07/13 08:13:12;;;;;;;14.65;9.88;;;;;;;;;;5085870;28;20527;-65
2022/07/13 08:15:38;;;;;;;16.95;9.75;;;;;;;;;;5095971;28;20101;-64
2022/07/13 08:18:04;;;;;;;9.50;7.93;;;;;;;;;;5094534;28;20036;-64
2022/07/13 08:20:30;;;;;;;13.18;8.07;;;;;;;;;;5100907;28;20096;-64
2022/07/13 08:22:56;;;;;;;11.65;7.55;;;;;;;;;;5084844;28;20052;-65
2022/07/13 08:25:23;;;;;;;17.83;6.90;;;;;;;;;;5097514;28;20076;-64
2022/07/13 08:27:49;;;;;;;11.43;7.90;;;;;;;;;;5087840;28;20048;-64
2022/07/13 08:30:15;;;;;;;16.38;8.63;;;;;;;;;;5103960;28;20749;-65
2022/07/13 08:32:42;;;;;;;11.70;7.35;;;;;;;;;;5109333;28;20098;-64
2022/07/13 08:40:41;;;;;;;10.77;7.05;;;;;;;;;;5100496;28;20075;-65
2022/07/13 08:43:07;;;;;;;13.60;7.43;;;;;;;;;;5105444;28;20103;-58
2022/07/13 08:45:34;;;;;;;11.70;6.35;;;;;;;;;;5096956;28;20119;-58
2022/07/13 08:48:00;;;;;;;16.00;6.18;;;;;;;;;;5102136;28;20119;-62
2022/07/13 08:50:28;;;;;;;7.85;5.18;;;;;;;;;;5111475;28;20108;-59
2022/07/13 08:52:54;;;;;;;11.68;5.38;;;;;;;;;;5105044;28;20070;-59
2022/07/13 08:55:21;;;;;;;8.23;4.60;;;;;;;;;;5110255;28;20044;-59
2022/07/13 08:57:47;;;;;;;5.82;3.90;;;;;;;;;;5101233;28;20052;-59
2022/07/13 09:00:13;;;;;;;7.88;4.68;;;;;;;;;;5100183;28;20047;-60
2022/07/13 09:02:39;;;;;;;7.93;4.50;;;;;;;;;;5102910;28;20043;-59
2022/07/13 09:05:08;;;;;;;8.93;4.68;;;;;;;;;;5101699;28;20047;-60
2022/07/13 09:07:35;;;;;;;9.45;4.20;;;;;;;;;;5103750;28;20047;-60
2022/07/13 09:10:02;;;;;;;5.10;4.30;;;;;;;;;;5105115;28;20624;-59
2022/07/13 09:12:29;;;;;;;9.60;4.25;;;;;;;;;;5104112;28;20051;-59
2022/07/13 09:15:00;;;;;;;7.18;3.95;;;;;;;;;;5103101;28;20573;-60
2022/07/13 09:17:42;;;;;;;5.07;3.75;;;;;;;;;;5103105;28;20044;-60
2022/07/13 09:20:10;;;;;;;7.97;4.38;;;;;;;;;;5098978;28;20059;-60
2022/07/13 09:22:47;;;;;;;5.40;3.35;;;;;;;;;;5108367;28;20135;-60
2022/07/13 09:25:14;;;;;;;5.03;3.67;;;;;;;;;;5104822;28;20115;-60
2022/07/13 09:27:50;;;;;;;6.97;4.43;;;;;;;;;;5100883;28;20082;-59
2022/07/13 09:30:23;;;;;;;6.65;4.65;;;;;;;;;;5103087;28;20036;-59
2022/07/13 09:32:51;;;;;;;9.15;4.50;;;;;;;;;;5105539;28;20062;-59
2022/07/13 09:35:17;;;;;;;11.93;4.35;;;;;;;;;;5099255;28;20047;-58
2022/07/13 09:37:43;;;;;;;7.22;3.25;;;;;;;;;;5104405;28;20052;-59
2022/07/13 09:40:11;;;;;;;7.40;3.90;;;;;;;;;;5104300;28;20051;-57
2022/07/13 09:42:41;;;;;;;4.72;2.72;;;;;;;;;;5102750;28;20055;-58
2022/07/13 09:47:55;;;;;;;4.60;3.05;;;;;;;;;;5102775;28;20066;-58
2022/07/13 09:50:24;;;;;;;8.00;3.90;;;;;;;;;;5104269;28;20063;-58
2022/07/13 09:52:52;;;;;;;9.25;2.95;;;;;;;;;;5101795;28;20040;-58
2022/07/13 09:55:20;;;;;;;11.98;5.63;;;;;;;;;;5103018;28;20040;-58
2022/07/13 09:57:51;;;;;;;7.32;5.38;;;;;;;;;;5090117;28;20043;-59
2022/07/13 10:00:18;;;;;;;10.02;5.03;;;;;;;;;;5104057;28;20103;-55
2022/07/13 10:02:47;;;;;;;10.05;4.57;;;;;;;;;;5103706;28;20036;-54
2022/07/13 10:05:19;;;;;;;7.25;3.70;;;;;;;;;;5103674;28;20044;-56
2022/07/13 10:07:45;;;;;;;6.20;3.25;;;;;;;;;;5101406;28;20067;-56
2022/07/13 10:10:12;;;;;;;6.85;2.55;;;;;;;;;;5104019;28;20052;-62
2022/07/13 10:12:38;;;;;;;3.95;2.70;;;;;;;;;;5101184;28;20105;-56
2022/07/13 10:15:07;;;;;;;4.03;2.20;;;;;;;;;;5105692;28;20061;-53
2022/07/13 10:17:34;;;;;;;5.95;2.03;;;;;;;;;;5102296;28;20108;-55
2022/07/13 10:20:10;;;;;;;8.32;2.65;;;;;;;;;;5103323;28;20055;-66
2022/07/13 10:22:45;;;;;;;3.67;1.95;;;;;;;;;;5101676;28;20048;-62
2022/07/13 10:25:12;;;;;;;3.60;1.98;;;;;;;;;;5103675;28;20172;-61
2022/07/13 10:27:38;;;;;;;4.18;1.48;;;;;;;;;;5097687;28;20060;-61
2022/07/13 10:30:20;;;;;;;5.93;1.60;;;;;;;;;;5099514;28;20036;-62
2022/07/13 10:32:47;;;;;;;5.10;1.27;;;;;;;;;;5116182;28;20082;-62
2022/07/13 10:35:16;;;;;;;4.50;1.33;;;;;;;;;;5104247;28;20059;-62
2022/07/13 10:38:00;;;;;;;3.40;1.35;;;;;;;;;;5103436;28;20036;-62
2022/07/13 10:40:27;;;;;;;5.93;1.95;;;;;;;;;;5098550;28;20051;-62
2022/07/13 10:42:53;;;;;;;4.82;1.90;;;;;;;;;;5102555;28;20092;-63
2022/07/13 10:45:32;;;;;;;4.22;1.73;;;;;;;;;;5105790;28;20044;-63
2022/07/13 10:47:58;;;;;;;3.55;1.88;;;;;;;;;;5102269;28;20139;-61
2022/07/13 10:50:34;;;;;;;3.33;2.10;;;;;;;;;;5087789;28;20529;-63
2022/07/13 10:53:01;;;;;;;4.47;2.00;;;;;;;;;;5082916;28;20503;-63
2022/07/13 10:55:36;;;;;;;3.47;1.90;;;;;;;;;;5083747;28;20063;-62
2022/07/13 10:58:23;;;;;;;3.08;1.90;;;;;;;;;;5090269;28;20077;-59
2022/07/13 11:00:49;;;;;;;5.40;2.00;;;;;;;;;;5089755;28;20055;-59
2022/07/13 11:03:27;;;;;;;3.35;1.80;;;;;;;;;;5094779;28;20044;-62
2022/07/13 11:06:12;;;;;;;6.35;1.85;;;;;;;;;;5085633;28;20053;-61
2022/07/13 11:08:38;;;;;;;1.90;1.63;;;;;;;;;;5083238;28;20113;-64
2022/07/13 11:11:11;;;;;;;2.85;1.73;;;;;;;;;;5098799;28;20055;-66
2022/07/13 11:13:38;;;;;;;5.72;1.60;;;;;;;;;;5105639;28;20297;-63
2022/07/13 11:16:06;;;;;;;5.13;1.65;;;;;;;;;;5103437;28;20044;-58
2022/07/13 11:18:36;;;;;;;1.77;1.50;;;;;;;;;;5102327;28;20080;-57
2022/07/13 11:21:14;;;;;;;4.28;1.73;;;;;;;;;;5106461;28;20047;-66
2022/07/13 11:26:46;;;;;;;2.50;1.70;;;;;;;;;;5104838;28;20059;-65
2022/07/13 11:29:15;;;;;;;5.22;1.92;;;;;;;;;;5106025;28;20421;-65
2022/07/13 11:31:42;;;;;;;2.80;1.63;;;;;;;;;;5103605;28;20538;-67
2022/07/13 11:34:08;;;;;;;2.85;1.75;;;;;;;;;;5102036;28;20040;-67
2022/07/13 11:36:34;;;;;;;4.88;1.85;;;;;;;;;;5103107;28;20055;-67
2022/07/13 11:39:01;;;;;;;2.03;1.30;;;;;;;;;;5104833;28;20507;-67
2022/07/13 11:41:27;;;;;;;3.17;2.42;;;;;;;;;;5105036;28;20035;-67
2022/07/13 11:43:54;;;;;;;3.42;1.77;;;;;;;;;;5108285;28;20055;-67
2022/07/13 11:46:24;;;;;;;3.45;1.67;;;;;;;;;;5104757;28;20044;-67
2022/07/13 11:49:04;;;;;;;3.22;2.40;;;;;;;;;;5104664;28;20040;-67
2022/07/13 11:51:31;;;;;;;3.88;1.67;;;;;;;;;;5113860;28;20432;-58
2022/07/13 11:54:06;;;;;;;4.78;2.03;;;;;;;;;;5105853;28;20040;-67
2022/07/13 11:56:32;;;;;;;4.15;2.13;;;;;;;;;;5102579;28;20083;-66
2022/07/13 11:58:58;;;;;;;3.90;1.53;;;;;;;;;;5106064;28;20551;-61
2022/07/13 12:01:25;;;;;;;11.80;1.90;;;;;;;;;;5106072;28;20302;-71
2022/07/13 12:03:53;;;;;;;6.22;1.60;;;;;;;;;;5101016;28;20043;-66
2022/07/13 12:06:27;;;;;;;4.97;1.67;;;;;;;;;;5103120;28;20055;-64
2022/07/13 12:08:55;;;;;;;3.13;1.60;;;;;;;;;;5105461;28;20048;-69
2022/07/13 12:11:22;;;;;;;5.53;1.98;;;;;;;;;;5098281;28;20056;-68
2022/07/13 12:13:49;;;;;;;4.80;1.63;;;;;;;;;;5106107;28;20059;-70
2022/07/13 12:16:15;;;;;;;7.85;2.03;;;;;;;;;;5105647;28;20115;-71
2022/07/13 12:19:04;;;;;;;7.47;1.63;;;;;;;;;;5105382;28;20139;-64
2022/07/13 12:21:31;;;;;;;8.73;1.88;;;;;;;;;;5101896;28;20419;-62
2022/07/13 12:23:58;;;;;;;;;;;;;;;;;;5105383;28;20036;-63
2022/07/13 12:26:24;;;;;;;6.45;1.90;;;;;;;;;;5105434;28;19965;-65
2022/07/13 12:28:50;;;;;;;2.75;1.60;;;;;;;;;;5099074;28;20048;-61
2022/07/13 12:31:20;;;;;;;4.93;1.60;;;;;;;;;;5097182;28;20051;-58
2022/07/13 12:33:47;;;;;;;4.72;2.10;;;;;;;;;;5103913;28;20655;-64
2022/07/13 12:36:15;;;;;;;6.22;2.08;;;;;;;;;;5098993;28;20173;-60
2022/07/13 12:39:00;;;;;;;9.43;2.40;;;;;;;;;;5105274;28;20048;-60
2022/07/13 12:41:27;;;;;;;6.18;2.10;;;;;;;;;;5095748;28;20036;-72
2022/07/13 12:44:01;;;;;;;11.65;2.45;;;;;;;;;;5092968;28;20117;-67
2022/07/13 12:46:43;;;;;;;6.75;2.25;;;;;;;;;;5105488;28;20047;-67
2022/07/13 12:49:10;;;;;;;5.38;2.17;;;;;;;;;;5102972;28;20040;-59
2022/07/13 12:51:46;;;;;;;7.57;2.40;;;;;;;;;;5094697;28;20548;-69
2022/07/13 12:54:12;;;;;;;8.70;2.00;;;;;;;;;;5095756;28;20068;-75
2022/07/13 12:56:49;;;;;;;8.55;2.70;;;;;;;;;;5097570;28;20048;-61
2022/07/13 12:59:20;;;;;;;7.80;2.13;;;;;;;;;;5105179;28;20050;-58
2022/07/13 13:01:47;;;;;;;4.00;1.98;;;;;;;;;;5102296;28;20076;-59
2022/07/13 13:04:16;;;;;;;5.47;1.90;;;;;;;;;;5107271;28;20039;-64
2022/07/13 13:06:43;;;;;;;5.75;1.85;;;;;;;;;;5090996;28;20060;-69
2022/07/13 13:09:09;;;;;;;;;;;;;;;;;;5099353;28;20108;-66
2022/07/13 13:11:36;;;;;;;2.72;1.48;;;;;;;;;;5096963;28;19956;-61
2022/07/13 13:14:02;;;;;;;5.00;2.10;;;;;;;;;;5103281;28;20055;-66
2022/07/13 13:16:28;;;;;;;8.23;1.83;;;;;;;;;;5104159;28;20542;-64
2022/07/13 13:18:54;;;;;;;6.05;1.83;;;;;;;;;;5102871;28;20059;-64
2022/07/13 13:21:20;;;;;;;4.47;1.60;;;;;;;;;;5093076;28;20071;-74
2022/07/13 13:23:47;;;;;;;6.18;1.77;;;;;;;;;;5101059;28;20047;-68
2022/07/13 13:26:13;;;;;;;7.88;1.83;;;;;;;;;;5096825;28;20042;-68
2022/07/13 13:31:24;;;;;;;3.65;1.40;;;;;;;;;;5101030;28;20253;-68
2022/07/13 13:33:50;;;;;;;5.88;1.67;;;;;;;;;;5102694;28;20137;-68
2022/07/13 13:36:16;;;;;;;5.80;1.65;;;;;;;;;;5103937;28;20044;-68
2022/07/13 13:38:42;;;;;;;8.07;1.80;;;;;;;;;;5078824;28;20112;-68
2022/07/13 13:41:09;;;;;;;5.20;1.85;;;;;;;;;;5102927;28;20044;-68
2022/07/13 13:43:35;;;;;;;9.00;2.45;;;;;;;;;;5099337;28;20114;-68
2022/07/13 13:46:01;;;;;;;5.45;2.00;;;;;;;;;;5099039;28;20076;-69
2022/07/13 13:48:27;;;;;;;2.22;1.27;;;;;;;;;;5102249;28;20051;-69
2022/07/13 13:50:54;;;;;;;4.85;1.50;;;;;;;;;;5090610;28;20048;-73
2022/07/13 13:53:20;;;;;;;4.70;1.40;;;;;;;;;;5103533;28;20132;-75
2022/07/13 13:55:46;;;;;;;5.97;1.50;;;;;;;;;;5101341;28;20050;-75
2022/07/13 13:58:12;;;;;;;5.22;1.63;;;;;;;;;;5102874;28;20302;-76
2022/07/13 14:00:39;;;;;;;6.63;1.67;;;;;;;;;;5108185;28;20101;-66
2022/07/13 14:03:05;;;;;;;7.40;2.40;;;;;;;;;;5101838;28;20040;-61
2022/07/13 14:05:31;;;;;;;7.07;1.70;;;;;;;;;;5095465;28;20100;-66
2022/07/13 14:07:58;;;;;;;4.22;1.42;;;;;;;;;;5103774;28;20119;-67
2022/07/13 14:10:24;;;;;;;4.78;1.73;;;;;;;;;;5092524;28;20055;-67
2022/07/13 14:12:51;;;;;;;3.55;1.15;;;;;;;;;;5102415;28;20055;-63
2022/07/13 14:15:17;;;;;;;5.72;1.88;;;;;;;;;;5106535;28;20120;-71
2022/07/13 14:17:43;;;;;;;6.50;1.35;;;;;;;;;;5105835;28;20066;-61
2022/07/13 14:20:09;;;;;;;4.88;2.03;;;;;;;;;;5102835;28;20096;-69
2022/07/13 14:22:36;;;;;;;5.47;1.65;;;;;;;;;;5100633;28;20226;-68
2022/07/13 14:25:02;;;;;;;3.47;1.33;;;;;;;;;;5098907;28;20048;-64
2022/07/13 14:27:29;;;;;;;6.32;1.88;;;;;;;;;;5100154;28;20073;-65
2022/07/13 14:29:55;;;;;;;5.07;1.60;;;;;;;;;;5103683;28;20036;-65
2022/07/13 14:32:21;;;;;;;8.35;2.25;;;;;;;;;;5102030;28;20048;-65
2022/07/13 14:34:48;;;;;;;;;;;;;;;;;;5104372;28;20501;-65
2022/07/13 14:37:18;;;;;;;6.60;2.25;;;;;;;;;;5103718;28;19926;-66
2022/07/13 14:39:44;;;;;;;11.90;2.03;;;;;;;;;;5103020;28;20055;-65
2022/07/13 14:42:11;;;;;;;7.05;1.83;;;;;;;;;;5097866;28;20095;-69
2022/07/13 14:44:37;;;;;;;8.70;2.30;;;;;;;;;;5099286;28;20052;-67
2022/07/13 14:47:04;;;;;;;10.45;2.78;;;;;;;;;;5101835;28;20045;-69
2022/07/13 14:49:31;;;;;;;11.05;2.95;;;;;;;;;;5105104;28;20047;-68
2022/07/13 14:51:57;;;;;;;10.85;3.45;;;;;;;;;;5106915;28;20050;-68
2022/07/13 14:54:23;;;;;;;8.35;2.08;;;;;;;;;;5104935;28;20046;-68